sensor_id;sensor_type;location;lat;lon;timestamp;pressure;altitude;pressure_sealevel;temperature;humidity
11011;BME280;5558;42.702;23.178;2022-07-01T00:00:21;93694.69;;;19.67;100.00
11011;BME280;5558;42.702;23.178;2022-07-01T00:02:49;93697.03;;;19.69;100.00
11011;BME280;5558;42.702;23.178;2022-07-01T00:05:16;93677.50;;;19.51;100.00
11011;BME280;5558;42.702;23.178;2022-07-01T00:07:42;93708.28;;;19.54;100.00
11011;BME280;5558;42.702;23.178;2022-07-01T00:10:10;93714.75;;;19.61;100.00
11011;BME280;5558;42.702;23.178;2022-07-01T00:12:36;93709.06;;;19.63;100.00
11011;BME280;5558;42.702;23.178;2022-07-01T00:15:04;93706.53;;;19.66;100.00
11011;BME280;5558;42.702;23.178;2022-07-01T00:17:31;93693.59;;;19.25;100.00
11011;BME280;5558;42.702;23.178;2022-07-01T00:19:59;93686.84;;;19.28;100.00
11011;BME280;5558;42.702;23.178;2022-07-01T00:22:26;93721.09;;;19.48;100.00
11011;BME280;5558;42.702;23.178;2022-07-01T00:24:53;93720.78;;;19.41;100.00
11011;BME280;5558;42.702;23.178;2022-07-01T00:27:20;93706.06;;;19.21;100.00
11011;BME280;5558;42.702;23.178;2022-07-01T00:29:47;93730.53;;;19.28;100.00
11011;BME280;5558;42.702;23.178;2022-07-01T00:32:14;93728.81;;;19.24;100.00
11011;BME280;5558;42.702;23.178;2022-07-01T00:34:40;93715.22;;;19.03;100.00
11011;BME280;5558;42.702;23.178;2022-07-01T00:37:09;93728.00;;;19.06;100.00
11011;BME280;5558;42.702;23.178;2022-07-01T00:39:36;93731.16;;;19.00;100.00
11011;BME280;5558;42.702;23.178;2022-07-01T00:42:04;93728.47;;;18.91;100.00
11011;BME280;5558;42.702;23.178;2022-07-01T00:44:31;93728.63;;;18.86;100.00
11011;BME280;5558;42.702;23.178;2022-07-01T00:47:00;93731.94;;;18.83;100.00
11011;BME280;5558;42.702;23.178;2022-07-01T00:49:29;93727.38;;;18.84;100.00
11011;BME280;5558;42.702;23.178;2022-07-01T00:51:56;93722.00;;;18.75;100.00
11011;BME280;5558;42.702;23.178;2022-07-01T00:54:26;93712.19;;;18.71;100.00
11011;BME280;5558;42.702;23.178;2022-07-01T00:56:53;93722.78;;;18.84;100.00
11011;BME280;5558;42.702;23.178;2022-07-01T00:59:21;93729.72;;;18.85;100.00
11011;BME280;5558;42.702;23.178;2022-07-01T01:01:47;93724.97;;;18.74;100.00
11011;BME280;5558;42.702;23.178;2022-07-01T01:04:14;93732.50;;;18.55;100.00
11011;BME280;5558;42.702;23.178;2022-07-01T01:06:41;93723.72;;;18.32;100.00
11011;BME280;5558;42.702;23.178;2022-07-01T01:09:08;93718.44;;;18.49;100.00
11011;BME280;5558;42.702;23.178;2022-07-01T01:11:37;93726.69;;;18.61;100.00
11011;BME280;5558;42.702;23.178;2022-07-01T01:14:04;93722.13;;;18.62;100.00
11011;BME280;5558;42.702;23.178;2022-07-01T01:16:30;93723.50;;;18.59;100.00
11011;BME280;5558;42.702;23.178;2022-07-01T01:18:59;93733.44;;;18.59;100.00
11011;BME280;5558;42.702;23.178;2022-07-01T01:21:29;93726.97;;;18.51;100.00
11011;BME280;5558;42.702;23.178;2022-07-01T01:23:57;93722.84;;;18.54;100.00
11011;BME280;5558;42.702;23.178;2022-07-01T01:26:24;93721.94;;;18.50;100.00
11011;BME280;5558;42.702;23.178;2022-07-01T01:28:51;93728.38;;;18.49;100.00
11011;BME280;5558;42.702;23.178;2022-07-01T01:31:27;93722.06;;;18.45;100.00
11011;BME280;5558;42.702;23.178;2022-07-01T01:33:54;93712.75;;;18.42;100.00
11011;BME280;5558;42.702;23.178;2022-07-01T01:36:21;93727.44;;;18.45;100.00
11011;BME280;5558;42.702;23.178;2022-07-01T01:38:52;93717.03;;;18.43;100.00
11011;BME280;5558;42.702;23.178;2022-07-01T01:41:19;93730.28;;;18.48;100.00
11011;BME280;5558;42.702;23.178;2022-07-01T01:43:46;93736.25;;;18.45;100.00
11011;BME280;5558;42.702;23.178;2022-07-01T01:46:13;93728.09;;;18.50;100.00
11011;BME280;5558;42.702;23.178;2022-07-01T01:48:40;93736.91;;;18.59;100.00
11011;BME280;5558;42.702;23.178;2022-07-01T01:51:07;93730.75;;;18.59;100.00
11011;BME280;5558;42.702;23.178;2022-07-01T01:53:34;93723.84;;;18.66;100.00
11011;BME280;5558;42.702;23.178;2022-07-01T01:56:02;93712.16;;;18.62;100.00
11011;BME280;5558;42.702;23.178;2022-07-01T01:58:29;93735.84;;;18.69;100.00
11011;BME280;5558;42.702;23.178;2022-07-01T02:00:55;93736.16;;;18.67;100.00
11011;BME280;5558;42.702;23.178;2022-07-01T02:03:23;93698.56;;;18.42;100.00
11011;BME280;5558;42.702;23.178;2022-07-01T02:05:50;93740.72;;;18.58;100.00
11011;BME280;5558;42.702;23.178;2022-07-01T02:08:17;93733.91;;;18.52;100.00
11011;BME280;5558;42.702;23.178;2022-07-01T02:10:44;93726.41;;;18.32;100.00
11011;BME280;5558;42.702;23.178;2022-07-01T02:13:12;93739.47;;;18.34;100.00
11011;BME280;5558;42.702;23.178;2022-07-01T02:15:39;93727.38;;;18.36;100.00
11011;BME280;5558;42.702;23.178;2022-07-01T02:18:06;93738.72;;;18.33;100.00
11011;BME280;5558;42.702;23.178;2022-07-01T02:20:32;93741.22;;;18.30;100.00
11011;BME280;5558;42.702;23.178;2022-07-01T02:23:00;93720.47;;;18.13;100.00
11011;BME280;5558;42.702;23.178;2022-07-01T02:25:27;93744.66;;;18.30;100.00
11011;BME280;5558;42.702;23.178;2022-07-01T02:27:54;93753.47;;;18.22;100.00
11011;BME280;5558;42.702;23.178;2022-07-01T02:30:22;93746.28;;;18.00;100.00
11011;BME280;5558;42.702;23.178;2022-07-01T02:32:48;93748.22;;;18.08;100.00
11011;BME280;5558;42.702;23.178;2022-07-01T02:35:15;93758.34;;;18.20;100.00
11011;BME280;5558;42.702;23.178;2022-07-01T02:37:42;93754.84;;;18.11;100.00
11011;BME280;5558;42.702;23.178;2022-07-01T02:40:09;93762.63;;;18.21;100.00
11011;BME280;5558;42.702;23.178;2022-07-01T02:42:38;93760.06;;;18.16;100.00
11011;BME280;5558;42.702;23.178;2022-07-01T02:45:06;93770.31;;;18.14;100.00
11011;BME280;5558;42.702;23.178;2022-07-01T02:47:35;93770.69;;;17.99;100.00
11011;BME280;5558;42.702;23.178;2022-07-01T02:50:04;93778.66;;;18.12;100.00
11011;BME280;5558;42.702;23.178;2022-07-01T02:52:32;93770.16;;;18.19;100.00
11011;BME280;5558;42.702;23.178;2022-07-01T02:54:59;93779.56;;;18.08;100.00
11011;BME280;5558;42.702;23.178;2022-07-01T02:57:26;93779.53;;;17.99;100.00
11011;BME280;5558;42.702;23.178;2022-07-01T02:59:53;93778.38;;;17.92;100.00
11011;BME280;5558;42.702;23.178;2022-07-01T03:02:20;93777.13;;;17.98;100.00
11011;BME280;5558;42.702;23.178;2022-07-01T03:04:50;93779.34;;;17.96;100.00
11011;BME280;5558;42.702;23.178;2022-07-01T03:07:19;93776.31;;;17.89;100.00
11011;BME280;5558;42.702;23.178;2022-07-01T03:09:46;93779.88;;;17.84;100.00
11011;BME280;5558;42.702;23.178;2022-07-01T03:12:13;93791.41;;;17.85;100.00
11011;BME280;5558;42.702;23.178;2022-07-01T03:14:53;93795.97;;;17.84;100.00
11011;BME280;5558;42.702;23.178;2022-07-01T03:17:20;93788.78;;;17.93;100.00
11011;BME280;5558;42.702;23.178;2022-07-01T03:19:49;93789.94;;;18.01;100.00
11011;BME280;5558;42.702;23.178;2022-07-01T03:22:17;93783.03;;;18.08;100.00
11011;BME280;5558;42.702;23.178;2022-07-01T03:24:44;93794.09;;;18.15;100.00
11011;BME280;5558;42.702;23.178;2022-07-01T03:27:10;93795.41;;;18.18;100.00
11011;BME280;5558;42.702;23.178;2022-07-01T03:29:37;93796.06;;;18.32;100.00
11011;BME280;5558;42.702;23.178;2022-07-01T03:32:04;93792.41;;;18.59;100.00
11011;BME280;5558;42.702;23.178;2022-07-01T03:34:31;93791.28;;;18.90;100.00
11011;BME280;5558;42.702;23.178;2022-07-01T03:37:00;93788.00;;;19.19;100.00
11011;BME280;5558;42.702;23.178;2022-07-01T03:39:26;93789.00;;;19.49;100.00
11011;BME280;5558;42.702;23.178;2022-07-01T03:41:53;93796.25;;;19.91;100.00
11011;BME280;5558;42.702;23.178;2022-07-01T03:44:20;93789.75;;;20.26;100.00
11011;BME280;5558;42.702;23.178;2022-07-01T03:46:47;93787.06;;;20.63;98.17
11011;BME280;5558;42.702;23.178;2022-07-01T03:49:14;93788.75;;;21.06;94.74
11011;BME280;5558;42.702;23.178;2022-07-01T03:51:41;93789.28;;;21.49;91.49
11011;BME280;5558;42.702;23.178;2022-07-01T03:54:09;93794.56;;;21.87;87.75
11011;BME280;5558;42.702;23.178;2022-07-01T03:56:53;93800.78;;;22.32;84.61
11011;BME280;5558;42.702;23.178;2022-07-01T03:59:20;93795.03;;;22.66;82.56
11011;BME280;5558;42.702;23.178;2022-07-01T04:01:47;93799.22;;;23.12;78.33
11011;BME280;5558;42.702;23.178;2022-07-01T04:04:13;93802.09;;;23.55;75.92
11011;BME280;5558;42.702;23.178;2022-07-01T04:06:40;93804.59;;;23.87;73.81
11011;BME280;5558;42.702;23.178;2022-07-01T04:09:09;93809.28;;;24.15;71.37
11011;BME280;5558;42.702;23.178;2022-07-01T04:11:37;93803.66;;;24.51;69.19
11011;BME280;5558;42.702;23.178;2022-07-01T04:14:04;93806.53;;;25.01;66.53
11011;BME280;5558;42.702;23.178;2022-07-01T04:16:31;93805.66;;;25.44;62.81
11011;BME280;5558;42.702;23.178;2022-07-01T04:18:57;93811.56;;;25.84;60.24
11011;BME280;5558;42.702;23.178;2022-07-01T04:21:24;93808.38;;;26.16;58.20
11011;BME280;5558;42.702;23.178;2022-07-01T04:24:10;93815.78;;;26.38;57.47
11011;BME280;5558;42.702;23.178;2022-07-01T04:26:39;93814.44;;;26.67;56.47
11011;BME280;5558;42.702;23.178;2022-07-01T04:29:06;93816.78;;;26.91;55.81
11011;BME280;5558;42.702;23.178;2022-07-01T04:31:33;93812.59;;;27.20;53.94
11011;BME280;5558;42.702;23.178;2022-07-01T04:34:00;93824.22;;;27.66;52.49
11011;BME280;5558;42.702;23.178;2022-07-01T04:36:27;93815.28;;;27.91;51.02
11011;BME280;5558;42.702;23.178;2022-07-01T04:38:54;93818.81;;;28.25;50.23
11011;BME280;5558;42.702;23.178;2022-07-01T04:41:23;93821.72;;;28.72;47.38
11011;BME280;5558;42.702;23.178;2022-07-01T04:44:08;93821.81;;;28.83;46.77
11011;BME280;5558;42.702;23.178;2022-07-01T04:46:35;93826.03;;;29.13;46.31
11011;BME280;5558;42.702;23.178;2022-07-01T04:49:02;93829.06;;;29.48;45.67
11011;BME280;5558;42.702;23.178;2022-07-01T04:51:29;93821.88;;;29.77;44.97
11011;BME280;5558;42.702;23.178;2022-07-01T04:53:56;93823.19;;;30.01;44.29
11011;BME280;5558;42.702;23.178;2022-07-01T04:56:24;93826.16;;;30.50;43.00
11011;BME280;5558;42.702;23.178;2022-07-01T04:58:52;93822.69;;;30.60;42.38
11011;BME280;5558;42.702;23.178;2022-07-01T05:01:19;93809.06;;;30.67;42.29
11011;BME280;5558;42.702;23.178;2022-07-01T05:03:45;93828.28;;;30.91;42.14
11011;BME280;5558;42.702;23.178;2022-07-01T05:06:12;93821.69;;;31.17;41.57
11011;BME280;5558;42.702;23.178;2022-07-01T05:08:39;93823.19;;;30.97;41.34
11011;BME280;5558;42.702;23.178;2022-07-01T05:11:06;93831.09;;;31.34;41.09
11011;BME280;5558;42.702;23.178;2022-07-01T05:13:34;93828.34;;;31.62;39.99
11011;BME280;5558;42.702;23.178;2022-07-01T05:16:01;93834.19;;;31.95;39.71
11011;BME280;5558;42.702;23.178;2022-07-01T05:18:28;93821.31;;;31.96;38.92
11011;BME280;5558;42.702;23.178;2022-07-01T05:21:12;93826.34;;;32.11;37.99
11011;BME280;5558;42.702;23.178;2022-07-01T05:23:57;93812.28;;;31.85;38.76
11011;BME280;5558;42.702;23.178;2022-07-01T05:26:24;93833.00;;;31.23;39.91
11011;BME280;5558;42.702;23.178;2022-07-01T05:28:53;93822.47;;;31.56;39.79
11011;BME280;5558;42.702;23.178;2022-07-01T05:31:20;93828.34;;;31.72;40.08
11011;BME280;5558;42.702;23.178;2022-07-01T05:33:48;93829.88;;;31.21;40.59
11011;BME280;5558;42.702;23.178;2022-07-01T05:36:15;93828.41;;;30.23;42.86
11011;BME280;5558;42.702;23.178;2022-07-01T05:38:42;93820.63;;;30.25;42.33
11011;BME280;5558;42.702;23.178;2022-07-01T05:41:09;93839.22;;;31.02;41.17
11011;BME280;5558;42.702;23.178;2022-07-01T05:43:36;93834.22;;;31.60;39.31
11011;BME280;5558;42.702;23.178;2022-07-01T05:46:04;93832.66;;;32.01;39.78
11011;BME280;5558;42.702;23.178;2022-07-01T05:48:31;93831.78;;;32.26;39.27
11011;BME280;5558;42.702;23.178;2022-07-01T05:50:59;93827.97;;;33.02;37.65
11011;BME280;5558;42.702;23.178;2022-07-01T05:53:26;93833.13;;;33.52;37.21
11011;BME280;5558;42.702;23.178;2022-07-01T05:55:52;93827.88;;;33.16;37.28
11011;BME280;5558;42.702;23.178;2022-07-01T05:58:19;93831.25;;;32.69;37.08
11011;BME280;5558;42.702;23.178;2022-07-01T06:00:46;93837.53;;;32.59;37.95
11011;BME280;5558;42.702;23.178;2022-07-01T06:03:14;93837.28;;;33.70;36.65
11011;BME280;5558;42.702;23.178;2022-07-01T06:05:42;93838.75;;;33.27;36.75
11011;BME280;5558;42.702;23.178;2022-07-01T06:08:09;93826.72;;;33.69;36.90
11011;BME280;5558;42.702;23.178;2022-07-01T06:10:36;93831.19;;;33.52;36.64
11011;BME280;5558;42.702;23.178;2022-07-01T06:13:03;93835.13;;;33.48;36.25
11011;BME280;5558;42.702;23.178;2022-07-01T06:15:30;93836.78;;;33.82;35.88
11011;BME280;5558;42.702;23.178;2022-07-01T06:17:57;93840.13;;;34.75;35.00
11011;BME280;5558;42.702;23.178;2022-07-01T06:20:26;93841.94;;;34.88;34.44
11011;BME280;5558;42.702;23.178;2022-07-01T06:22:53;93836.31;;;35.25;33.65
11011;BME280;5558;42.702;23.178;2022-07-01T06:25:20;93838.44;;;35.44;34.09
11011;BME280;5558;42.702;23.178;2022-07-01T06:27:47;93847.66;;;35.31;34.46
11011;BME280;5558;42.702;23.178;2022-07-01T06:30:14;93845.53;;;35.69;34.26
11011;BME280;5558;42.702;23.178;2022-07-01T06:32:40;93837.06;;;34.69;35.40
11011;BME280;5558;42.702;23.178;2022-07-01T06:35:08;93850.19;;;34.88;34.71
11011;BME280;5558;42.702;23.178;2022-07-01T06:37:36;93839.28;;;35.38;33.89
11011;BME280;5558;42.702;23.178;2022-07-01T06:40:05;93839.41;;;35.04;35.11
11011;BME280;5558;42.702;23.178;2022-07-01T06:42:32;93834.09;;;35.70;34.12
11011;BME280;5558;42.702;23.178;2022-07-01T06:44:59;93840.84;;;36.35;32.89
11011;BME280;5558;42.702;23.178;2022-07-01T06:47:27;93842.59;;;37.23;32.86
11011;BME280;5558;42.702;23.178;2022-07-01T06:49:54;93848.81;;;36.92;32.74
11011;BME280;5558;42.702;23.178;2022-07-01T06:52:20;93841.97;;;37.67;31.77
11011;BME280;5558;42.702;23.178;2022-07-01T06:54:49;93840.84;;;38.13;31.39
11011;BME280;5558;42.702;23.178;2022-07-01T06:57:15;93838.75;;;37.37;32.05
11011;BME280;5558;42.702;23.178;2022-07-01T06:59:42;93829.81;;;37.65;33.04
11011;BME280;5558;42.702;23.178;2022-07-01T07:02:09;93837.81;;;38.08;30.99
11011;BME280;5558;42.702;23.178;2022-07-01T07:04:35;93841.56;;;38.62;29.75
11011;BME280;5558;42.702;23.178;2022-07-01T07:07:02;93854.63;;;39.56;28.76
11011;BME280;5558;42.702;23.178;2022-07-01T07:09:29;93847.38;;;39.21;28.47
11011;BME280;5558;42.702;23.178;2022-07-01T07:11:57;93856.06;;;40.79;27.62
11011;BME280;5558;42.702;23.178;2022-07-01T07:14:24;93854.66;;;40.96;27.43
11011;BME280;5558;42.702;23.178;2022-07-01T07:16:52;93849.97;;;41.67;25.56
11011;BME280;5558;42.702;23.178;2022-07-01T07:19:20;93855.19;;;42.05;25.27
11011;BME280;5558;42.702;23.178;2022-07-01T07:21:47;93851.16;;;41.57;26.72
11011;BME280;5558;42.702;23.178;2022-07-01T07:24:13;93858.84;;;41.01;27.59
11011;BME280;5558;42.702;23.178;2022-07-01T07:26:40;93862.28;;;40.49;28.09
11011;BME280;5558;42.702;23.178;2022-07-01T07:29:08;93856.28;;;39.66;28.29
11011;BME280;5558;42.702;23.178;2022-07-01T07:31:35;93837.06;;;39.22;30.00
11011;BME280;5558;42.702;23.178;2022-07-01T07:34:02;93848.84;;;38.97;30.94
11011;BME280;5558;42.702;23.178;2022-07-01T07:36:29;93850.44;;;38.25;30.41
11011;BME280;5558;42.702;23.178;2022-07-01T07:38:57;93851.69;;;37.92;31.58
11011;BME280;5558;42.702;23.178;2022-07-01T07:41:23;93848.41;;;37.09;32.23
11011;BME280;5558;42.702;23.178;2022-07-01T07:43:50;93847.97;;;36.32;32.23
11011;BME280;5558;42.702;23.178;2022-07-01T07:46:18;93842.34;;;34.87;34.73
11011;BME280;5558;42.702;23.178;2022-07-01T07:48:45;93843.06;;;35.74;33.98
11011;BME280;5558;42.702;23.178;2022-07-01T07:51:12;93845.56;;;37.13;33.23
11011;BME280;5558;42.702;23.178;2022-07-01T07:53:43;93850.69;;;37.50;31.26
11011;BME280;5558;42.702;23.178;2022-07-01T07:56:11;93849.16;;;37.65;31.69
11011;BME280;5558;42.702;23.178;2022-07-01T07:58:38;93849.34;;;37.74;30.94
11011;BME280;5558;42.702;23.178;2022-07-01T08:01:08;93848.72;;;38.15;30.06
11011;BME280;5558;42.702;23.178;2022-07-01T08:03:36;93845.75;;;39.49;29.04
11011;BME280;5558;42.702;23.178;2022-07-01T08:06:03;93856.53;;;40.78;29.02
11011;BME280;5558;42.702;23.178;2022-07-01T08:08:30;93851.03;;;41.61;26.95
11011;BME280;5558;42.702;23.178;2022-07-01T08:10:57;93850.50;;;42.69;25.46
11011;BME280;5558;42.702;23.178;2022-07-01T08:13:24;93848.91;;;41.74;26.18
11011;BME280;5558;42.702;23.178;2022-07-01T08:15:51;93842.81;;;41.27;26.98
11011;BME280;5558;42.702;23.178;2022-07-01T08:18:18;93837.06;;;41.21;27.42
11011;BME280;5558;42.702;23.178;2022-07-01T08:20:46;93834.88;;;39.79;29.21
11011;BME280;5558;42.702;23.178;2022-07-01T08:23:16;93821.78;;;38.47;31.19
11011;BME280;5558;42.702;23.178;2022-07-01T08:25:42;93822.06;;;37.24;32.44
11011;BME280;5558;42.702;23.178;2022-07-01T08:28:09;93823.34;;;36.22;34.04
11011;BME280;5558;42.702;23.178;2022-07-01T08:30:36;93823.22;;;35.06;36.20
11011;BME280;5558;42.702;23.178;2022-07-01T08:33:04;93815.84;;;33.55;38.76
11011;BME280;5558;42.702;23.178;2022-07-01T08:35:32;93811.94;;;32.94;40.48
11011;BME280;5558;42.702;23.178;2022-07-01T08:38:00;93805.25;;;32.01;43.19
11011;BME280;5558;42.702;23.178;2022-07-01T08:40:28;93804.75;;;32.28;43.48
11011;BME280;5558;42.702;23.178;2022-07-01T08:42:56;93806.69;;;32.41;42.78
11011;BME280;5558;42.702;23.178;2022-07-01T08:45:25;93801.69;;;32.18;43.96
11011;BME280;5558;42.702;23.178;2022-07-01T08:47:55;93805.28;;;31.91;43.21
11011;BME280;5558;42.702;23.178;2022-07-01T08:50:23;93813.06;;;31.85;45.39
11011;BME280;5558;42.702;23.178;2022-07-01T08:52:50;93812.31;;;31.60;44.39
11011;BME280;5558;42.702;23.178;2022-07-01T08:55:19;93811.13;;;31.65;45.33
11011;BME280;5558;42.702;23.178;2022-07-01T08:57:46;93820.16;;;31.41;44.09
11011;BME280;5558;42.702;23.178;2022-07-01T09:00:14;93812.31;;;31.46;43.32
11011;BME280;5558;42.702;23.178;2022-07-01T09:03:03;93817.78;;;31.25;46.53
11011;BME280;5558;42.702;23.178;2022-07-01T09:05:30;93809.94;;;31.02;48.06
11011;BME280;5558;42.702;23.178;2022-07-01T09:07:59;93815.72;;;30.73;47.22
11011;BME280;5558;42.702;23.178;2022-07-01T09:10:29;93800.00;;;30.42;45.32
11011;BME280;5558;42.702;23.178;2022-07-01T09:13:03;93810.53;;;30.40;44.28
11011;BME280;5558;42.702;23.178;2022-07-01T09:15:31;93819.19;;;30.59;39.42
11011;BME280;5558;42.702;23.178;2022-07-01T09:18:04;93817.56;;;30.48;39.79
11011;BME280;5558;42.702;23.178;2022-07-01T09:20:34;93809.66;;;30.22;39.31
11011;BME280;5558;42.702;23.178;2022-07-01T09:23:04;93812.25;;;29.94;39.13
11011;BME280;5558;42.702;23.178;2022-07-01T09:25:34;93818.41;;;29.83;39.33
11011;BME280;5558;42.702;23.178;2022-07-01T09:28:11;93817.28;;;29.88;42.24
11011;BME280;5558;42.702;23.178;2022-07-01T09:30:40;93817.81;;;30.15;41.50
11011;BME280;5558;42.702;23.178;2022-07-01T09:33:09;93811.47;;;29.93;41.43
11011;BME280;5558;42.702;23.178;2022-07-01T09:35:37;93810.97;;;29.77;43.17
11011;BME280;5558;42.702;23.178;2022-07-01T09:38:04;93812.31;;;30.11;43.43
11011;BME280;5558;42.702;23.178;2022-07-01T09:40:51;93807.03;;;30.39;41.19
11011;BME280;5558;42.702;23.178;2022-07-01T09:43:20;93803.19;;;30.68;41.31
11011;BME280;5558;42.702;23.178;2022-07-01T09:45:51;93808.25;;;30.52;38.78
11011;BME280;5558;42.702;23.178;2022-07-01T09:48:18;93800.03;;;30.49;41.88
11011;BME280;5558;42.702;23.178;2022-07-01T09:50:45;93804.28;;;30.43;40.55
11011;BME280;5558;42.702;23.178;2022-07-01T09:53:12;93798.41;;;30.30;39.84
11011;BME280;5558;42.702;23.178;2022-07-01T09:55:40;93798.31;;;30.20;40.04
11011;BME280;5558;42.702;23.178;2022-07-01T09:58:09;93800.25;;;30.19;41.79
11011;BME280;5558;42.702;23.178;2022-07-01T10:00:37;93791.31;;;30.22;40.84
11011;BME280;5558;42.702;23.178;2022-07-01T10:03:06;93787.88;;;30.43;41.91
11011;BME280;5558;42.702;23.178;2022-07-01T10:05:39;93787.91;;;30.46;41.25
11011;BME280;5558;42.702;23.178;2022-07-01T10:08:22;93792.25;;;30.65;40.97
11011;BME280;5558;42.702;23.178;2022-07-01T10:11:03;93792.75;;;30.95;40.37
11011;BME280;5558;42.702;23.178;2022-07-01T10:13:35;93791.97;;;30.94;38.96
11011;BME280;5558;42.702;23.178;2022-07-01T10:16:03;93790.41;;;31.11;39.95
11011;BME280;5558;42.702;23.178;2022-07-01T10:18:30;93790.41;;;31.18;41.21
11011;BME280;5558;42.702;23.178;2022-07-01T10:20:58;93786.91;;;31.21;37.52
11011;BME280;5558;42.702;23.178;2022-07-01T10:23:30;93782.22;;;31.29;39.50
11011;BME280;5558;42.702;23.178;2022-07-01T10:26:04;93772.47;;;31.35;39.46
11011;BME280;5558;42.702;23.178;2022-07-01T10:28:42;93776.34;;;31.27;39.06
11011;BME280;5558;42.702;23.178;2022-07-01T10:31:12;93774.78;;;31.29;36.43
11011;BME280;5558;42.702;23.178;2022-07-01T10:33:44;93769.28;;;30.83;38.44
11011;BME280;5558;42.702;23.178;2022-07-01T10:36:14;93769.63;;;30.64;38.41
11011;BME280;5558;42.702;23.178;2022-07-01T10:39:08;93775.47;;;30.66;36.32
11011;BME280;5558;42.702;23.178;2022-07-01T10:41:37;93774.75;;;30.83;38.58
11011;BME280;5558;42.702;23.178;2022-07-01T10:44:07;93762.28;;;30.96;38.72
11011;BME280;5558;42.702;23.178;2022-07-01T10:46:40;93758.31;;;30.76;38.48
11011;BME280;5558;42.702;23.178;2022-07-01T10:49:10;93748.13;;;30.52;36.46
11011;BME280;5558;42.702;23.178;2022-07-01T10:51:48;93750.81;;;30.42;38.65
11011;BME280;5558;42.702;23.178;2022-07-01T10:54:44;93754.38;;;30.67;37.44
11011;BME280;5558;42.702;23.178;2022-07-01T10:57:22;93752.38;;;30.36;36.35
11011;BME280;5558;42.702;23.178;2022-07-01T10:59:51;93749.66;;;30.46;38.01
11011;BME280;5558;42.702;23.178;2022-07-01T11:02:19;93743.38;;;30.32;36.65
11011;BME280;5558;42.702;23.178;2022-07-01T11:04:47;93745.63;;;30.12;34.94
11011;BME280;5558;42.702;23.178;2022-07-01T11:07:14;93744.53;;;30.34;36.88
11011;BME280;5558;42.702;23.178;2022-07-01T11:09:42;93746.19;;;30.70;36.73
11011;BME280;5558;42.702;23.178;2022-07-01T11:12:09;93745.06;;;30.85;36.03
11011;BME280;5558;42.702;23.178;2022-07-01T11:14:37;93736.88;;;31.07;36.87
11011;BME280;5558;42.702;23.178;2022-07-01T11:17:07;93742.34;;;31.10;32.30
11011;BME280;5558;42.702;23.178;2022-07-01T11:19:35;93737.28;;;31.09;34.58
11011;BME280;5558;42.702;23.178;2022-07-01T11:22:02;93742.75;;;31.09;34.29
11011;BME280;5558;42.702;23.178;2022-07-01T11:24:30;93734.53;;;31.01;35.01
11011;BME280;5558;42.702;23.178;2022-07-01T11:27:00;93737.28;;;31.05;31.16
11011;BME280;5558;42.702;23.178;2022-07-01T11:29:28;93739.22;;;31.19;31.56
11011;BME280;5558;42.702;23.178;2022-07-01T11:31:55;93735.31;;;31.16;32.28
11011;BME280;5558;42.702;23.178;2022-07-01T11:34:26;93732.56;;;31.27;33.12
11011;BME280;5558;42.702;23.178;2022-07-01T11:36:54;93729.06;;;31.51;36.91
11011;BME280;5558;42.702;23.178;2022-07-01T11:39:39;93731.00;;;31.57;32.89
11011;BME280;5558;42.702;23.178;2022-07-01T11:42:08;93726.66;;;31.74;33.61
11011;BME280;5558;42.702;23.178;2022-07-01T11:44:37;93720.78;;;31.89;35.15
11011;BME280;5558;42.702;23.178;2022-07-01T11:47:05;93720.38;;;31.77;32.83
11011;BME280;5558;42.702;23.178;2022-07-01T11:49:43;93720.38;;;31.77;32.33
11011;BME280;5558;42.702;23.178;2022-07-01T11:52:10;93723.13;;;31.87;29.82
11011;BME280;5558;42.702;23.178;2022-07-01T11:54:38;93714.50;;;31.82;29.40
11011;BME280;5558;42.702;23.178;2022-07-01T11:57:09;93719.53;;;32.01;30.08
11011;BME280;5558;42.702;23.178;2022-07-01T11:59:36;93712.09;;;32.05;28.37
11011;BME280;5558;42.702;23.178;2022-07-01T12:02:04;93709.38;;;32.05;28.80
11011;BME280;5558;42.702;23.178;2022-07-01T12:04:33;93708.97;;;32.06;29.72
11011;BME280;5558;42.702;23.178;2022-07-01T12:07:02;93704.31;;;31.96;28.64
11011;BME280;5558;42.702;23.178;2022-07-01T12:09:29;93697.63;;;32.04;29.56
11011;BME280;5558;42.702;23.178;2022-07-01T12:11:56;93699.19;;;31.98;29.17
11011;BME280;5558;42.702;23.178;2022-07-01T12:14:24;93699.13;;;32.16;28.45
11011;BME280;5558;42.702;23.178;2022-07-01T12:16:52;93699.00;;;32.44;30.99
11011;BME280;5558;42.702;23.178;2022-07-01T12:19:19;93686.88;;;32.38;28.77
11011;BME280;5558;42.702;23.178;2022-07-01T12:21:51;93688.72;;;32.62;30.96
11011;BME280;5558;42.702;23.178;2022-07-01T12:24:19;93693.00;;;32.63;27.88
11011;BME280;5558;42.702;23.178;2022-07-01T12:26:50;93692.53;;;32.75;27.41
11011;BME280;5558;42.702;23.178;2022-07-01T12:29:17;93684.28;;;32.79;28.31
11011;BME280;5558;42.702;23.178;2022-07-01T12:31:54;93690.09;;;32.88;31.10
11011;BME280;5558;42.702;23.178;2022-07-01T12:34:21;93692.97;;;32.70;30.39
11011;BME280;5558;42.702;23.178;2022-07-01T12:36:48;93690.31;;;32.53;29.14
11011;BME280;5558;42.702;23.178;2022-07-01T12:39:15;93681.81;;;32.40;30.10
11011;BME280;5558;42.702;23.178;2022-07-01T12:41:49;93681.44;;;32.31;31.34
11011;BME280;5558;42.702;23.178;2022-07-01T12:44:21;93679.72;;;32.58;28.90
11011;BME280;5558;42.702;23.178;2022-07-01T12:46:48;93677.38;;;32.57;28.56
11011;BME280;5558;42.702;23.178;2022-07-01T12:49:18;93676.91;;;32.69;26.97
11011;BME280;5558;42.702;23.178;2022-07-01T12:51:46;93673.03;;;32.63;28.42
11011;BME280;5558;42.702;23.178;2022-07-01T12:54:28;93677.75;;;32.62;29.18
11011;BME280;5558;42.702;23.178;2022-07-01T12:56:57;93671.81;;;32.71;33.30
11011;BME280;5558;42.702;23.178;2022-07-01T12:59:23;93673.75;;;32.74;26.87
11011;BME280;5558;42.702;23.178;2022-07-01T13:01:50;93668.63;;;32.76;30.77
11011;BME280;5558;42.702;23.178;2022-07-01T13:04:23;93666.69;;;32.73;25.92